sensor_id;sensor_type;location;lat;lon;timestamp;pressure;altitude;pressure_sealevel;temperature;humidity
62712;BME280;48772;55.586;37.730;2023-04-01T00:01:03;97937.88;;;1.73;100.00
62712;BME280;48772;55.586;37.730;2023-04-01T00:03:29;97933.22;;;1.65;100.00
62712;BME280;48772;55.586;37.730;2023-04-01T00:05:57;97905.63;;;1.47;100.00
62712;BME280;48772;55.586;37.730;2023-04-01T00:08:24;97947.44;;;1.74;100.00
62712;BME280;48772;55.586;37.730;2023-04-01T00:10:50;97921.66;;;1.55;100.00
62712;BME280;48772;55.586;37.730;2023-04-01T00:13:16;97901.75;;;1.40;100.00
62712;BME280;48772;55.586;37.730;2023-04-01T00:15:42;97931.22;;;1.56;100.00
62712;BME280;48772;55.586;37.730;2023-04-01T00:18:09;97926.81;;;1.57;100.00
62712;BME280;48772;55.586;37.730;2023-04-01T00:20:35;97925.97;;;1.56;100.00
62712;BME280;48772;55.586;37.730;2023-04-01T00:23:01;97898.75;;;1.34;100.00
62712;BME280;48772;55.586;37.730;2023-04-01T00:25:26;97916.75;;;1.51;100.00
62712;BME280;48772;55.586;37.730;2023-04-01T00:27:52;97933.75;;;1.58;100.00
62712;BME280;48772;55.586;37.730;2023-04-01T00:30:18;97922.44;;;1.45;100.00
62712;BME280;48772;55.586;37.730;2023-04-01T00:32:44;97925.19;;;1.43;100.00
62712;BME280;48772;55.586;37.730;2023-04-01T00:35:10;97927.06;;;1.41;100.00
62712;BME280;48772;55.586;37.730;2023-04-01T00:37:37;97933.28;;;1.40;100.00
62712;BME280;48772;55.586;37.730;2023-04-01T00:40:04;97932.94;;;1.45;100.00
62712;BME280;48772;55.586;37.730;2023-04-01T00:42:31;97918.22;;;1.42;100.00
62712;BME280;48772;55.586;37.730;2023-04-01T00:44:57;97924.72;;;1.49;100.00
62712;BME280;48772;55.586;37.730;2023-04-01T00:47:24;97930.72;;;1.51;100.00
62712;BME280;48772;55.586;37.730;2023-04-01T00:49:52;97892.84;;;1.30;100.00
62712;BME280;48772;55.586;37.730;2023-04-01T00:52:24;97923.81;;;1.50;100.00
62712;BME280;48772;55.586;37.730;2023-04-01T00:54:56;97920.94;;;1.53;100.00
62712;BME280;48772;55.586;37.730;2023-04-01T00:59:54;97920.94;;;1.53;100.00
62712;BME280;48772;55.586;37.730;2023-04-01T01:02:20;97908.16;;;1.49;100.00
62712;BME280;48772;55.586;37.730;2023-04-01T01:04:46;97912.34;;;1.51;100.00
62712;BME280;48772;55.586;37.730;2023-04-01T01:12:41;97934.97;;;1.65;100.00
62712;BME280;48772;55.586;37.730;2023-04-01T01:15:20;97936.03;;;1.62;100.00
62712;BME280;48772;55.586;37.730;2023-04-01T01:32:17;97937.31;;;1.57;100.00
62712;BME280;48772;55.586;37.730;2023-04-01T01:37:46;97937.94;;;1.60;100.00
62712;BME280;48772;55.586;37.730;2023-04-01T01:40:14;97928.59;;;1.56;100.00
62712;BME280;48772;55.586;37.730;2023-04-01T01:42:46;97918.53;;;1.50;100.00
62712;BME280;48772;55.586;37.730;2023-04-01T01:45:14;97924.78;;;1.60;100.00
62712;BME280;48772;55.586;37.730;2023-04-01T01:47:45;97937.94;;;1.60;100.00
62712;BME280;48772;55.586;37.730;2023-04-01T01:50:13;97931.00;;;1.59;100.00
62712;BME280;48772;55.586;37.730;2023-04-01T01:52:39;97922.53;;;1.56;100.00
62712;BME280;48772;55.586;37.730;2023-04-01T01:55:27;97925.47;;;1.51;100.00
62712;BME280;48772;55.586;37.730;2023-04-01T01:57:57;97932.06;;;1.57;100.00
62712;BME280;48772;55.586;37.730;2023-04-01T02:00:25;97918.88;;;1.46;100.00
62712;BME280;48772;55.586;37.730;2023-04-01T02:02:52;97906.47;;;1.35;100.00
62712;BME280;48772;55.586;37.730;2023-04-01T02:05:21;97929.97;;;1.49;100.00
62712;BME280;48772;55.586;37.730;2023-04-01T02:07:59;97930.94;;;1.48;100.00
62712;BME280;48772;55.586;37.730;2023-04-01T02:10:28;97873.16;;;1.12;100.00
62712;BME280;48772;55.586;37.730;2023-04-01T02:13:00;97948.66;;;1.57;100.00
62712;BME280;48772;55.586;37.730;2023-04-01T02:15:31;97939.88;;;1.46;100.00
62712;BME280;48772;55.586;37.730;2023-04-01T02:17:59;97952.91;;;1.47;100.00
62712;BME280;48772;55.586;37.730;2023-04-01T02:20:27;97938.63;;;1.39;100.00
62712;BME280;48772;55.586;37.730;2023-04-01T02:22:57;97929.59;;;1.30;100.00
62712;BME280;48772;55.586;37.730;2023-04-01T02:25:34;97936.09;;;1.37;100.00
62712;BME280;48772;55.586;37.730;2023-04-01T02:28:02;97942.41;;;1.35;100.00
62712;BME280;48772;55.586;37.730;2023-04-01T02:30:29;97947.47;;;1.38;100.00
62712;BME280;48772;55.586;37.730;2023-04-01T02:32:58;97933.19;;;1.29;100.00
62712;BME280;48772;55.586;37.730;2023-04-01T02:35:24;97945.66;;;1.38;100.00
62712;BME280;48772;55.586;37.730;2023-04-01T02:37:53;97937.59;;;1.29;100.00
62712;BME280;48772;55.586;37.730;2023-04-01T02:40:19;97959.84;;;1.36;100.00
62712;BME280;48772;55.586;37.730;2023-04-01T02:42:45;97915.34;;;1.09;100.00
62712;BME280;48772;55.586;37.730;2023-04-01T02:45:12;97927.75;;;1.20;100.00
62712;BME280;48772;55.586;37.730;2023-04-01T02:47:38;97946.81;;;1.34;100.00
62712;BME280;48772;55.586;37.730;2023-04-01T02:50:04;97957.84;;;1.39;100.00
62712;BME280;48772;55.586;37.730;2023-04-01T02:52:32;97952.47;;;1.41;100.00
62712;BME280;48772;55.586;37.730;2023-04-01T02:55:00;97949.03;;;1.40;100.00
62712;BME280;48772;55.586;37.730;2023-04-01T02:57:28;97937.28;;;1.33;100.00
62712;BME280;48772;55.586;37.730;2023-04-01T02:59:54;97943.47;;;1.32;100.00
62712;BME280;48772;55.586;37.730;2023-04-01T03:02:20;97949.72;;;1.42;100.00
62712;BME280;48772;55.586;37.730;2023-04-01T03:04:46;97943.03;;;1.38;100.00
62712;BME280;48772;55.586;37.730;2023-04-01T03:07:12;97964.66;;;1.42;100.00
62712;BME280;48772;55.586;37.730;2023-04-01T03:09:39;97965.28;;;1.45;100.00
62712;BME280;48772;55.586;37.730;2023-04-01T03:12:06;97955.00;;;1.42;100.00
62712;BME280;48772;55.586;37.730;2023-04-01T03:14:40;97955.34;;;1.38;100.00
62712;BME280;48772;55.586;37.730;2023-04-01T03:17:05;97931.41;;;1.17;100.00
62712;BME280;48772;55.586;37.730;2023-04-01T03:19:32;97958.47;;;1.30;100.00
62712;BME280;48772;55.586;37.730;2023-04-01T03:21:59;97975.19;;;1.42;100.00
62712;BME280;48772;55.586;37.730;2023-04-01T03:24:25;97974.81;;;1.46;100.00
62712;BME280;48772;55.586;37.730;2023-04-01T03:26:51;97975.47;;;1.50;100.00
62712;BME280;48772;55.586;37.730;2023-04-01T03:29:18;97960.59;;;1.38;100.00
62712;BME280;48772;55.586;37.730;2023-04-01T03:31:43;97979.16;;;1.47;100.00
62712;BME280;48772;55.586;37.730;2023-04-01T03:34:09;97977.03;;;1.52;100.00
62712;BME280;48772;55.586;37.730;2023-04-01T03:36:36;97972.19;;;1.46;100.00
62712;BME280;48772;55.586;37.730;2023-04-01T03:39:02;97908.03;;;1.14;100.00
62712;BME280;48772;55.586;37.730;2023-04-01T03:41:37;97975.75;;;1.58;100.00
62712;BME280;48772;55.586;37.730;2023-04-01T03:44:04;97949.63;;;1.44;100.00
62712;BME280;48772;55.586;37.730;2023-04-01T03:46:30;97998.88;;;1.65;100.00
62712;BME280;48772;55.586;37.730;2023-04-01T03:48:56;97977.53;;;1.57;100.00
62712;BME280;48772;55.586;37.730;2023-04-01T03:51:22;98007.16;;;1.72;100.00
62712;BME280;48772;55.586;37.730;2023-04-01T03:53:48;97990.66;;;1.57;100.00
62712;BME280;48772;55.586;37.730;2023-04-01T03:56:14;98002.97;;;1.69;100.00
62712;BME280;48772;55.586;37.730;2023-04-01T03:58:40;98013.47;;;1.69;100.00
62712;BME280;48772;55.586;37.730;2023-04-01T04:01:33;98020.28;;;1.72;100.00
62712;BME280;48772;55.586;37.730;2023-04-01T04:04:00;98007.91;;;1.61;100.00
62712;BME280;48772;55.586;37.730;2023-04-01T04:06:26;97983.16;;;1.40;100.00
62712;BME280;48772;55.586;37.730;2023-04-01T04:08:52;98013.88;;;1.63;100.00
62712;BME280;48772;55.586;37.730;2023-04-01T04:11:19;98002.88;;;1.58;100.00
62712;BME280;48772;55.586;37.730;2023-04-01T04:13:45;98002.66;;;1.61;100.00
62712;BME280;48772;55.586;37.730;2023-04-01T04:16:14;97950.59;;;1.30;100.00
62712;BME280;48772;55.586;37.730;2023-04-01T04:18:45;98007.91;;;1.61;100.00
62712;BME280;48772;55.586;37.730;2023-04-01T04:21:14;98024.19;;;1.66;100.00
62712;BME280;48772;55.586;37.730;2023-04-01T04:23:41;98031.09;;;1.67;100.00
62712;BME280;48772;55.586;37.730;2023-04-01T04:26:12;98040.44;;;1.71;100.00
62712;BME280;48772;55.586;37.730;2023-04-01T04:28:39;98040.66;;;1.68;100.00
62712;BME280;48772;55.586;37.730;2023-04-01T04:31:06;98030.41;;;1.65;100.00
62712;BME280;48772;55.586;37.730;2023-04-01T04:33:34;98035.84;;;1.75;100.00
62712;BME280;48772;55.586;37.730;2023-04-01T04:36:01;98028.94;;;1.61;100.00
62712;BME280;48772;55.586;37.730;2023-04-01T04:38:27;98031.31;;;1.64;100.00
62712;BME280;48772;55.586;37.730;2023-04-01T04:40:53;98048.00;;;1.76;100.00
62712;BME280;48772;55.586;37.730;2023-04-01T04:43:20;98047.59;;;1.82;100.00
62712;BME280;48772;55.586;37.730;2023-04-01T04:45:46;98047.59;;;1.82;100.00
62712;BME280;48772;55.586;37.730;2023-04-01T04:48:14;98054.09;;;1.89;100.00
62712;BME280;48772;55.586;37.730;2023-04-01T04:50:46;98036.44;;;1.78;100.00
62712;BME280;48772;55.586;37.730;2023-04-01T04:53:14;98056.72;;;1.89;100.00
62712;BME280;48772;55.586;37.730;2023-04-01T04:55:49;98070.06;;;1.98;100.00
62712;BME280;48772;55.586;37.730;2023-04-01T04:58:31;98036.72;;;1.86;100.00
62712;BME280;48772;55.586;37.730;2023-04-01T05:00:58;98032.31;;;1.87;100.00
62712;BME280;48772;55.586;37.730;2023-04-01T05:03:28;98070.22;;;2.08;100.00
62712;BME280;48772;55.586;37.730;2023-04-01T05:05:54;98063.91;;;2.10;100.00
62712;BME280;48772;55.586;37.730;2023-04-01T05:08:20;98004.19;;;1.76;100.00
62712;BME280;48772;55.586;37.730;2023-04-01T05:10:46;98035.34;;;1.93;100.00
62712;BME280;48772;55.586;37.730;2023-04-01T05:13:12;98056.97;;;2.09;100.00
62712;BME280;48772;55.586;37.730;2023-04-01T05:15:39;98068.06;;;2.25;100.00
62712;BME280;48772;55.586;37.730;2023-04-01T05:18:04;98067.63;;;2.31;100.00
62712;BME280;48772;55.586;37.730;2023-04-01T05:20:30;98069.53;;;2.29;100.00
62712;BME280;48772;55.586;37.730;2023-04-01T05:22:57;98048.00;;;2.24;100.00
62712;BME280;48772;55.586;37.730;2023-04-01T05:25:22;98045.16;;;2.27;100.00
62712;BME280;48772;55.586;37.730;2023-04-01T05:27:48;98058.94;;;2.42;100.00
62712;BME280;48772;55.586;37.730;2023-04-01T05:30:14;98068.94;;;2.49;100.00
62712;BME280;48772;55.586;37.730;2023-04-01T05:32:46;98040.94;;;2.48;100.00
62712;BME280;48772;55.586;37.730;2023-04-01T05:35:14;98026.53;;;2.41;100.00
62712;BME280;48772;55.586;37.730;2023-04-01T05:37:40;98068.97;;;2.60;100.00
62712;BME280;48772;55.586;37.730;2023-04-01T05:40:07;98079.66;;;2.70;100.00
62712;BME280;48772;55.586;37.730;2023-04-01T05:42:33;98059.69;;;2.67;100.00
62712;BME280;48772;55.586;37.730;2023-04-01T05:44:59;98076.69;;;2.74;100.00
62712;BME280;48772;55.586;37.730;2023-04-01T05:47:58;98078.22;;;2.66;100.00
62712;BME280;48772;55.586;37.730;2023-04-01T05:50:24;98050.03;;;2.55;100.00
62712;BME280;48772;55.586;37.730;2023-04-01T05:52:51;98058.16;;;2.52;100.00
62712;BME280;48772;55.586;37.730;2023-04-01T05:55:17;98062.66;;;2.39;100.00
62712;BME280;48772;55.586;37.730;2023-04-01T05:57:45;98068.94;;;2.49;100.00
62712;BME280;48772;55.586;37.730;2023-04-01T06:00:12;98086.66;;;2.58;100.00
62712;BME280;48772;55.586;37.730;2023-04-01T06:02:38;98100.13;;;2.77;100.00
62712;BME280;48772;55.586;37.730;2023-04-01T06:05:19;98098.53;;;2.87;100.00
62712;BME280;48772;55.586;37.730;2023-04-01T06:07:46;98075.91;;;2.85;100.00
62712;BME280;48772;55.586;37.730;2023-04-01T06:10:18;98095.06;;;2.98;100.00
62712;BME280;48772;55.586;37.730;2023-04-01T06:12:50;98098.16;;;3.15;100.00
62712;BME280;48772;55.586;37.730;2023-04-01T06:15:34;98090.72;;;3.20;100.00
62712;BME280;48772;55.586;37.730;2023-04-01T06:32:01;98110.50;;;3.26;100.00
62712;BME280;48772;55.586;37.730;2023-04-01T06:37:40;98118.50;;;3.24;100.00
62712;BME280;48772;55.586;37.730;2023-04-01T06:40:42;98117.91;;;3.21;100.00
62712;BME280;48772;55.586;37.730;2023-04-01T06:46:29;98124.47;;;3.15;100.00
62712;BME280;48772;55.586;37.730;2023-04-01T06:53:04;98134.28;;;3.13;100.00
62712;BME280;48772;55.586;37.730;2023-04-01T06:55:57;98125.53;;;3.13;100.00
62712;BME280;48772;55.586;37.730;2023-04-01T06:59:00;98145.06;;;3.21;100.00
62712;BME280;48772;55.586;37.730;2023-04-01T07:01:46;98139.13;;;3.30;100.00
62712;BME280;48772;55.586;37.730;2023-04-01T07:04:19;98142.03;;;3.38;100.00
62712;BME280;48772;55.586;37.730;2023-04-01T07:09:15;98110.72;;;3.23;100.00
62712;BME280;48772;55.586;37.730;2023-04-01T07:15:17;98141.00;;;3.63;100.00
62712;BME280;48772;55.586;37.730;2023-04-01T07:17:53;98135.63;;;3.76;100.00
62712;BME280;48772;55.586;37.730;2023-04-01T07:20:32;98142.00;;;3.84;100.00
62712;BME280;48772;55.586;37.730;2023-04-01T07:23:04;98140.22;;;4.07;100.00
62712;BME280;48772;55.586;37.730;2023-04-01T07:26:00;98112.88;;;4.30;100.00
62712;BME280;48772;55.586;37.730;2023-04-01T07:28:30;98130.66;;;4.70;100.00
62712;BME280;48772;55.586;37.730;2023-04-01T07:31:18;98129.41;;;4.85;100.00
62712;BME280;48772;55.586;37.730;2023-04-01T07:34:16;98134.34;;;5.10;100.00
62712;BME280;48772;55.586;37.730;2023-04-01T07:45:50;98124.50;;;6.45;100.00
62712;BME280;48772;55.586;37.730;2023-04-01T07:48:20;98123.03;;;6.80;100.00
62712;BME280;48772;55.586;37.730;2023-04-01T07:51:03;98128.06;;;6.83;100.00
62712;BME280;48772;55.586;37.730;2023-04-01T07:53:42;98132.94;;;6.97;100.00
62712;BME280;48772;55.586;37.730;2023-04-01T08:11:21;98146.34;;;6.96;100.00
62712;BME280;48772;55.586;37.730;2023-04-01T08:20:25;98131.41;;;7.62;100.00
62712;BME280;48772;55.586;37.730;2023-04-01T08:23:10;98139.66;;;8.33;100.00
62712;BME280;48772;55.586;37.730;2023-04-01T08:25:44;98119.88;;;8.09;100.00
62712;BME280;48772;55.586;37.730;2023-04-01T08:28:17;98134.38;;;8.24;100.00
62712;BME280;48772;55.586;37.730;2023-04-01T08:30:57;98134.41;;;8.78;100.00
62712;BME280;48772;55.586;37.730;2023-04-01T08:33:29;98134.44;;;8.95;100.00
62712;BME280;48772;55.586;37.730;2023-04-01T08:38:43;98128.16;;;9.92;100.00
62712;BME280;48772;55.586;37.730;2023-04-01T09:04:41;98151.09;;;12.55;100.00
62712;BME280;48772;55.586;37.730;2023-04-01T09:13:47;98160.19;;;12.77;100.00
62712;BME280;48772;55.586;37.730;2023-04-01T09:22:38;98147.88;;;13.82;100.00
62712;BME280;48772;55.586;37.730;2023-04-01T09:28:09;98147.97;;;14.48;100.00
62712;BME280;48772;55.586;37.730;2023-04-01T09:33:44;98165.16;;;14.39;100.00
62712;BME280;48772;55.586;37.730;2023-04-01T09:39:01;98136.50;;;13.35;100.00
62712;BME280;48772;55.586;37.730;2023-04-01T09:42:29;98149.63;;;12.83;100.00
62712;BME280;48772;55.586;37.730;2023-04-01T09:47:29;98184.72;;;12.18;100.00
62712;BME280;48772;55.586;37.730;2023-04-01T10:10:29;98169.53;;;12.81;100.00
62712;BME280;48772;55.586;37.730;2023-04-01T10:51:16;98204.31;;;14.77;100.00
62712;BME280;48772;55.586;37.730;2023-04-01T11:19:17;98212.53;;;15.19;85.85
62712;BME280;48772;55.586;37.730;2023-04-01T11:28:08;98227.91;;;14.08;99.94
62712;BME280;48772;55.586;37.730;2023-04-01T11:33:45;98200.28;;;12.93;100.00
62712;BME280;48772;55.586;37.730;2023-04-01T11:43:11;98202.53;;;12.57;100.00
62712;BME280;48772;55.586;37.730;2023-04-01T11:52:32;98232.81;;;11.70;100.00
62712;BME280;48772;55.586;37.730;2023-04-01T11:55:24;98231.84;;;11.87;100.00
62712;BME280;48772;55.586;37.730;2023-04-01T12:00:40;98231.97;;;11.28;100.00
62712;BME280;48772;55.586;37.730;2023-04-01T12:06:02;98243.81;;;11.25;100.00
62712;BME280;48772;55.586;37.730;2023-04-01T12:14:40;98257.31;;;11.65;100.00
62712;BME280;48772;55.586;37.730;2023-04-01T12:16:46;98254.28;;;11.60;100.00
62712;BME280;48772;55.586;37.730;2023-04-01T12:19:38;98252.41;;;11.53;100.00
62712;BME280;48772;55.586;37.730;2023-04-01T12:28:05;98243.25;;;10.72;100.00
62712;BME280;48772;55.586;37.730;2023-04-01T12:30:45;98250.91;;;11.01;100.00
62712;BME280;48772;55.586;37.730;2023-04-01T12:38:48;98256.69;;;10.63;100.00
62712;BME280;48772;55.586;37.730;2023-04-01T12:41:31;98263.78;;;10.80;100.00
62712;BME280;48772;55.586;37.730;2023-04-01T12:52:06;98273.56;;;10.46;100.00
62712;BME280;48772;55.586;37.730;2023-04-01T13:03:37;98300.44;;;9.99;100.00
62712;BME280;48772;55.586;37.730;2023-04-01T13:17:27;98306.41;;;9.49;100.00
62712;BME280;48772;55.586;37.730;2023-04-01T13:22:46;98252.47;;;9.29;100.00
62712;BME280;48772;55.586;37.730;2023-04-01T13:25:36;98324.00;;;9.32;100.00
62712;BME280;48772;55.586;37.730;2023-04-01T13:28:13;98321.00;;;9.18;100.00
62712;BME280;48772;55.586;37.730;2023-04-01T13:30:53;98321.41;;;9.13;100.00
62712;BME280;48772;55.586;37.730;2023-04-01T13:36:19;98338.13;;;8.96;100.00
62712;BME280;48772;55.586;37.730;2023-04-01T13:44:27;98317.63;;;8.79;100.00
62712;BME280;48772;55.586;37.730;2023-04-01T13:49:54;98336.63;;;8.84;100.00
62712;BME280;48772;55.586;37.730;2023-04-01T13:52:47;98334.38;;;8.89;100.00
62712;BME280;48772;55.586;37.730;2023-04-01T14:10:43;98320.88;;;8.64;100.00
62712;BME280;48772;55.586;37.730;2023-04-01T14:24:03;98327.34;;;8.42;100.00
62712;BME280;48772;55.586;37.730;2023-04-01T14:27:09;98360.19;;;8.51;100.00
62712;BME280;48772;55.586;37.730;2023-04-01T14:29:36;98371.09;;;8.48;100.00
62712;BME280;48772;55.586;37.730;2023-04-01T14:40:10;98368.44;;;8.48;100.00
62712;BME280;48772;55.586;37.730;2023-04-01T14:43:03;98367.88;;;8.44;100.00
62712;BME280;48772;55.586;37.730;2023-04-01T14:48:39;98354.34;;;8.28;100.00
62712;BME280;48772;55.586;37.730;2023-04-01T14:51:34;98380.59;;;8.31;100.00
62712;BME280;48772;55.586;37.730;2023-04-01T14:56:42;98375.72;;;8.36;100.00
62712;BME280;48772;55.586;37.730;2023-04-01T15:01:58;98364.78;;;8.20;100.00
62712;BME280;48772;55.586;37.730;2023-04-01T15:05:26;98382.94;;;8.15;100.00
62712;BME280;48772;55.586;37.730;2023-04-01T15:13:20;98393.44;;;8.07;100.00
62712;BME280;48772;55.586;37.730;2023-04-01T15:21:43;98405.03;;;8.06;100.00
62712;BME280;48772;55.586;37.730;2023-04-01T15:24:28;98407.38;;;8.00;100.00
62712;BME280;48772;55.586;37.730;2023-04-01T15:41:24;98423.00;;;7.93;100.00
62712;BME280;48772;55.586;37.730;2023-04-01T15:43:54;98351.09;;;7.38;100.00
62712;BME280;48772;55.586;37.730;2023-04-01T15:46:39;98434.28;;;7.76;100.00
62712;BME280;48772;55.586;37.730;2023-04-01T15:49:47;98425.63;;;7.74;100.00
62712;BME280;48772;55.586;37.730;2023-04-01T16:11:31;98431.81;;;7.54;100.00
62712;BME280;48772;55.586;37.730;2023-04-01T16:14:18;98467.66;;;7.69;100.00
62712;BME280;48772;55.586;37.730;2023-04-01T16:17:20;98462.03;;;7.63;100.00
62712;BME280;48772;55.586;37.730;2023-04-01T16:20:17;98391.69;;;7.29;100.00
62712;BME280;48772;55.586;37.730;2023-04-01T16:25:45;98478.78;;;7.63;100.00
62712;BME280;48772;55.586;37.730;2023-04-01T16:31:43;98495.25;;;7.67;100.00
62712;BME280;48772;55.586;37.730;2023-04-01T16:34:27;98483.19;;;7.53;100.00
62712;BME280;48772;55.586;37.730;2023-04-01T16:47:47;98486.41;;;7.27;100.00
62712;BME280;48772;55.586;37.730;2023-04-01T16:50:27;98501.59;;;7.45;100.00
62712;BME280;48772;55.586;37.730;2023-04-01T16:55:44;98488.38;;;7.25;100.00
62712;BME280;48772;55.586;37.730;2023-04-01T17:01:05;98431.75;;;6.84;100.00
62712;BME280;48772;55.586;37.730;2023-04-01T17:03:46;98505.38;;;7.22;100.00
62712;BME280;48772;55.586;37.730;2023-04-01T17:06:31;98496.63;;;7.11;100.00
62712;BME280;48772;55.586;37.730;2023-04-01T17:11:50;98524.25;;;7.29;100.00
62712;BME280;48772;55.586;37.730;2023-04-01T17:14:26;98530.97;;;7.33;100.00
62712;BME280;48772;55.586;37.730;2023-04-01T17:20:07;98506.38;;;7.10;100.00
62712;BME280;48772;55.586;37.730;2023-04-01T17:32:21;98538.25;;;7.20;100.00
62712;BME280;48772;55.586;37.730;2023-04-01T17:56:42;98560.56;;;6.97;100.00
62712;BME280;48772;55.586;37.730;2023-04-01T17:59:16;98560.94;;;6.92;100.00
62712;BME280;48772;55.586;37.730;2023-04-01T18:10:08;98561.75;;;6.72;100.00
62712;BME280;48772;55.586;37.730;2023-04-01T18:15:40;98563.28;;;6.74;100.00
62712;BME280;48772;55.586;37.730;2023-04-01T18:21:54;98582.94;;;6.72;100.00
62712;BME280;48772;55.586;37.730;2023-04-01T18:27:02;98568.53;;;6.54;100.00
62712;BME280;48772;55.586;37.730;2023-04-01T18:29:47;98571.09;;;6.44;100.00
62712;BME280;48772;55.586;37.730;2023-04-01T18:32:25;98586.59;;;6.60;100.00
62712;BME280;48772;55.586;37.730;2023-04-01T18:37:43;98592.59;;;6.51;100.00
62712;BME280;48772;55.586;37.730;2023-04-01T18:40:26;98583.34;;;6.45;100.00
62712;BME280;48772;55.586;37.730;2023-04-01T18:48:33;98610.41;;;6.60;100.00
62712;BME280;48772;55.586;37.730;2023-04-01T18:51:34;98579.50;;;6.38;100.00
62712;BME280;48772;55.586;37.730;2023-04-01T18:54:02;98612.84;;;6.63;100.00
62712;BME280;48772;55.586;37.730;2023-04-01T18:56:43;98605.94;;;6.60;100.00
62712;BME280;48772;55.586;37.730;2023-04-01T18:59:16;98619.31;;;6.59;100.00
62712;BME280;48772;55.586;37.730;2023-04-01T19:04:47;98632.81;;;6.56;100.00
62712;BME280;48772;55.586;37.730;2023-04-01T19:09:49;98629.91;;;6.59;100.00
62712;BME280;48772;55.586;37.730;2023-04-01T19:20:39;98629.19;;;6.57;100.00
62712;BME280;48772;55.586;37.730;2023-04-01T19:26:03;98610.69;;;6.46;100.00
62712;BME280;48772;55.586;37.730;2023-04-01T19:28:37;98626.19;;;6.61;100.00
62712;BME280;48772;55.586;37.730;2023-04-01T19:34:49;98632.81;;;6.56;100.00
62712;BME280;48772;55.586;37.730;2023-04-01T19:37:50;98631.38;;;6.52;100.00
62712;BME280;48772;55.586;37.730;2023-04-01T19:45:38;98640.66;;;6.57;100.00
62712;BME280;48772;55.586;37.730;2023-04-01T19:50:52;98654.72;;;6.58;100.00
62712;BME280;48772;55.586;37.730;2023-04-01T19:56:22;98644.75;;;6.50;100.00
62712;BME280;48772;55.586;37.730;2023-04-01T20:01:46;98645.81;;;6.48;100.00
62712;BME280;48772;55.586;37.730;2023-04-01T20:04:22;98651.25;;;6.57;100.00
62712;BME280;48772;55.586;37.730;2023-04-01T20:07:00;98645.94;;;6.57;100.00
62712;BME280;48772;55.586;37.730;2023-04-01T20:12:24;98660.97;;;6.57;100.00
62712;BME280;48772;55.586;37.730;2023-04-01T20:14:57;98645.44;;;6.52;100.00
62712;BME280;48772;55.586;37.730;2023-04-01T20:17:42;98648.94;;;6.53;100.00
62712;BME280;48772;55.586;37.730;2023-04-01T20:23:05;98643.56;;;6.43;100.00
62712;BME280;48772;55.586;37.730;2023-04-01T20:25:49;98649.66;;;6.44;100.00
62712;BME280;48772;55.586;37.730;2023-04-01T20:31:01;98661.34;;;6.52;100.00
62712;BME280;48772;55.586;37.730;2023-04-01T20:47:07;98669.63;;;6.48;100.00
62712;BME280;48772;55.586;37.730;2023-04-01T20:52:32;98660.25;;;6.55;100.00
62712;BME280;48772;55.586;37.730;2023-04-01T21:03:48;98646.19;;;6.43;100.00
62712;BME280;48772;55.586;37.730;2023-04-01T21:09:33;98667.13;;;6.57;100.00
62712;BME280;48772;55.586;37.730;2023-04-01T21:12:19;98675.19;;;6.56;100.00
62712;BME280;48772;55.586;37.730;2023-04-01T21:15:38;98649.44;;;6.36;100.00
62712;BME280;48772;55.586;37.730;2023-04-01T21:17:58;98673.75;;;6.52;100.00
62712;BME280;48772;55.586;37.730;2023-04-01T21:20:59;98691.56;;;6.50;100.00
62712;BME280;48772;55.586;37.730;2023-04-01T21:32:19;98679.75;;;6.54;100.00
62712;BME280;48772;55.586;37.730;2023-04-01T21:40:13;98681.19;;;6.47;100.00
62712;BME280;48772;55.586;37.730;2023-04-01T21:51:25;98694.69;;;6.55;100.00
62712;BME280;48772;55.586;37.730;2023-04-01T22:03:01;98687.81;;;6.41;100.00
62712;BME280;48772;55.586;37.730;2023-04-01T22:06:00;98701.91;;;6.53;100.00
62712;BME280;48772;55.586;37.730;2023-04-01T22:08:42;98699.75;;;6.47;100.00
62712;BME280;48772;55.586;37.730;2023-04-01T22:16:48;98659.78;;;6.28;100.00
62712;BME280;48772;55.586;37.730;2023-04-01T22:24:46;98716.59;;;6.46;100.00
62712;BME280;48772;55.586;37.730;2023-04-01T22:32:43;98722.47;;;6.49;100.00
62712;BME280;48772;55.586;37.730;2023-04-01T22:35:28;98723.34;;;6.50;100.00
62712;BME280;48772;55.586;37.730;2023-04-01T22:41:11;98723.56;;;6.47;100.00
62712;BME280;48772;55.586;37.730;2023-04-01T22:46:16;98731.63;;;6.45;100.00
62712;BME280;48772;55.586;37.730;2023-04-01T22:48:54;98714.41;;;6.29;100.00
62712;BME280;48772;55.586;37.730;2023-04-01T22:51:46;98722.13;;;6.43;100.00
62712;BME280;48772;55.586;37.730;2023-04-01T22:54:31;98712.63;;;6.40;100.00
62712;BME280;48772;55.586;37.730;2023-04-01T23:00:06;98707.44;;;6.39;100.00
62712;BME280;48772;55.586;37.730;2023-04-01T23:02:40;98688.28;;;6.24;100.00
62712;BME280;48772;55.586;37.730;2023-04-01T23:05:12;98725.75;;;6.42;100.00
62712;BME280;48772;55.586;37.730;2023-04-01T23:10:39;98688.06;;;6.27;100.00
62712;BME280;48772;55.586;37.730;2023-04-01T23:13:13;98706.47;;;6.40;100.00
62712;BME280;48772;55.586;37.730;2023-04-01T23:15:42;98731.16;;;6.51;100.00
62712;BME280;48772;55.586;37.730;2023-04-01T23:18:22;98727.31;;;6.44;100.00
62712;BME280;48772;55.586;37.730;2023-04-01T23:29:39;98727.91;;;6.48;100.00
62712;BME280;48772;55.586;37.730;2023-04-01T23:32:14;98720.81;;;6.48;100.00
62712;BME280;48772;55.586;37.730;2023-04-01T23:34:47;98747.63;;;6.55;100.00
62712;BME280;48772;55.586;37.730;2023-04-01T23:37:15;98745.00;;;6.55;100.00
62712;BME280;48772;55.586;37.730;2023-04-01T23:39:46;98747.63;;;6.55;100.00
62712;BME280;48772;55.586;37.730;2023-04-01T23:42:20;98736.81;;;6.58;100.00
62712;BME280;48772;55.586;37.730;2023-04-01T23:44:47;98742.22;;;6.56;100.00